Time;durP1;ratioP1;P1;durP2;ratioP2;P2;SDS_P1;SDS_P2;PMS_P1;PMS_P2;Temp;Humidity;BMP_temperature;BMP_pressure;BME280_temperature;BME280_humidity;BME280_pressure;Samples;Min_cycle;Max_cycle;Signal;HPM_P1;HPM_P2
2021/09/20 00:01:29;;;;;;;30.70;27.55;;;16.00;84.10;;;;;;5000110;28;20096;-69
2021/09/20 00:03:54;;;;;;;31.80;28.38;;;16.00;84.10;;;;;;5003121;28;20046;-69
2021/09/20 00:06:20;;;;;;;31.00;27.70;;;16.00;84.10;;;;;;5006383;28;20037;-70
2021/09/20 00:08:46;;;;;;;32.92;27.95;;;16.00;84.20;;;;;;5011441;28;20034;-70
2021/09/20 00:11:12;;;;;;;30.25;26.85;;;15.90;84.20;;;;;;5009386;28;20048;-70
2021/09/20 00:13:38;;;;;;;30.77;26.63;;;15.90;84.30;;;;;;5003744;28;21104;-69
2021/09/20 00:16:04;;;;;;;30.67;27.15;;;15.90;84.30;;;;;;5001012;28;20048;-69
2021/09/20 00:18:29;;;;;;;30.75;27.45;;;15.90;84.40;;;;;;5010207;28;20039;-69
2021/09/20 00:20:55;;;;;;;29.90;26.70;;;15.80;84.40;;;;;;5008206;28;20042;-69
2021/09/20 00:23:21;;;;;;;30.25;27.00;;;15.80;84.50;;;;;;5007512;28;20513;-70
2021/09/20 00:25:47;;;;;;;31.05;27.17;;;15.80;84.50;;;;;;5006540;28;20046;-69
2021/09/20 00:28:13;;;;;;;30.40;27.10;;;15.80;84.50;;;;;;5005012;28;20037;-69
2021/09/20 00:30:40;;;;;;;30.58;27.27;;;15.80;84.40;;;;;;5008723;28;20052;-69
2021/09/20 00:33:07;;;;;;;30.00;26.20;;;15.70;84.30;;;;;;5008346;28;20486;-70
2021/09/20 00:35:33;;;;;;;29.90;26.70;;;15.70;84.50;;;;;;5006802;28;20084;-68
2021/09/20 00:37:58;;;;;;;28.95;25.58;;;15.60;84.70;;;;;;5003199;28;20038;-70
2021/09/20 00:40:24;;;;;;;29.83;26.67;;;15.60;84.80;;;;;;5004042;28;20041;-69
2021/09/20 00:42:50;;;;;;;33.40;28.65;;;15.60;84.80;;;;;;5008206;28;20042;-70
2021/09/20 00:45:16;;;;;;;31.65;28.30;;;15.60;84.90;;;;;;5000027;28;20121;-69
2021/09/20 00:47:42;;;;;;;31.13;27.80;;;15.60;85.00;;;;;;5004998;28;20118;-69
2021/09/20 00:50:08;;;;;;;32.15;28.65;;;15.60;85.10;;;;;;5004980;28;20045;-69
2021/09/20 00:52:34;;;;;;;31.70;28.23;;;15.60;85.00;;;;;;5006472;28;20030;-70
2021/09/20 00:55:00;;;;;;;30.63;27.33;;;15.60;85.00;;;;;;5000668;28;20101;-69
2021/09/20 00:57:26;;;;;;;31.48;28.27;;;15.60;85.00;;;;;;4999662;28;20033;-70
2021/09/20 00:59:52;;;;;;;33.65;28.65;;;15.50;84.90;;;;;;5006477;28;20046;-70
2021/09/20 01:02:18;;;;;;;32.42;29.02;;;15.50;85.10;;;;;;5008674;28;20038;-69
2021/09/20 01:04:43;;;;;;;32.88;29.38;;;15.50;85.00;;;;;;5005928;28;20048;-70
2021/09/20 01:07:09;;;;;;;32.88;28.65;;;15.50;85.10;;;;;;5004604;28;20059;-69
2021/09/20 01:09:40;;;;;;;31.30;27.98;;;15.40;85.20;;;;;;5004988;28;20117;-70
2021/09/20 01:12:10;;;;;;;33.65;30.05;;;15.40;85.30;;;;;;5006597;28;20030;-70
2021/09/20 01:14:37;;;;;;;38.45;31.40;;;15.40;85.30;;;;;;5004222;28;20018;-69
2021/09/20 01:17:07;;;;;;;34.63;30.92;;;15.30;85.30;;;;;;5002608;28;20026;-71
2021/09/20 01:19:33;;;;;;;33.42;28.98;;;15.40;85.40;;;;;;5002888;28;20034;-69
2021/09/20 01:22:07;;;;;;;34.03;30.27;;;15.30;85.40;;;;;;5004192;28;20100;-69
2021/09/20 01:24:33;;;;;;;31.50;28.15;;;15.40;85.40;;;;;;5009445;28;20037;-69
2021/09/20 01:27:01;;;;;;;33.20;29.75;;;15.30;85.20;;;;;;5011941;28;20034;-69
2021/09/20 01:29:28;;;;;;;33.13;29.52;;;15.30;85.30;;;;;;4999786;28;20041;-69
2021/09/20 01:31:54;;;;;;;32.60;28.80;;;15.30;85.30;;;;;;4983277;28;20037;-68
2021/09/20 01:34:20;;;;;;;33.00;29.45;;;15.30;85.40;;;;;;4988592;28;20060;-69
2021/09/20 01:36:46;;;;;;;30.58;27.30;;;15.20;85.40;;;;;;4978915;28;20113;-71
2021/09/20 01:39:27;;;;;;;31.15;27.85;;;15.20;85.30;;;;;;4987508;28;20042;-69
2021/09/20 01:41:53;;;;;;;31.38;28.05;;;15.30;85.30;;;;;;4985964;28;20043;-70
2021/09/20 01:44:19;;;;;;;32.85;29.35;;;15.30;85.30;;;;;;4980784;28;20031;-69
2021/09/20 01:46:48;;;;;;;32.35;28.33;;;15.20;85.30;;;;;;4983162;28;20042;-68
2021/09/20 01:49:14;;;;;;;34.50;29.33;;;15.30;85.20;;;;;;4982108;28;20035;-69
2021/09/20 01:51:40;;;;;;;31.63;28.17;;;15.20;85.00;;;;;;4987035;28;20034;-69
2021/09/20 01:54:07;;;;;;;34.85;30.63;;;15.30;85.20;;;;;;4984116;28;20062;-70
2021/09/20 01:56:33;;;;;;;37.00;32.83;;;15.20;85.30;;;;;;4986006;28;20417;-69
2021/09/20 01:58:59;;;;;;;38.28;32.90;;;15.30;85.60;;;;;;4977744;28;20093;-70
2021/09/20 02:01:26;;;;;;;44.15;37.95;;;15.30;85.70;;;;;;4981879;28;20049;-70
2021/09/20 02:03:52;;;;;;;45.05;38.13;;;15.30;85.80;;;;;;4985718;28;20041;-70
2021/09/20 02:06:19;;;;;;;54.30;45.67;;;15.40;85.90;;;;;;4982884;28;20034;-69
2021/09/20 02:08:45;;;;;;;50.83;43.90;;;15.40;86.10;;;;;;4985597;28;20112;-69
2021/09/20 02:11:11;;;;;;;49.10;43.17;;;15.40;86.30;;;;;;4983779;28;20038;-69
2021/09/20 02:13:36;;;;;;;51.78;42.08;;;15.50;86.30;;;;;;4986313;28;20027;-71
2021/09/20 02:16:02;;;;;;;49.75;42.28;;;15.50;86.30;;;;;;4979177;28;20474;-70
2021/09/20 02:18:28;;;;;;;48.60;41.17;;;15.50;86.40;;;;;;4992894;28;20035;-71
2021/09/20 02:20:54;;;;;;;47.22;39.80;;;15.50;86.40;;;;;;4979303;28;20059;-69
2021/09/20 02:23:19;;;;;;;45.47;39.95;;;15.60;86.40;;;;;;4981973;28;20022;-71
2021/09/20 02:25:45;;;;;;;46.30;40.03;;;15.50;86.40;;;;;;4985360;28;20066;-69
2021/09/20 02:28:11;;;;;;;44.60;39.42;;;15.50;86.40;;;;;;4979469;28;20454;-69
2021/09/20 02:30:37;;;;;;;49.80;41.13;;;15.50;86.30;;;;;;4984101;28;20112;-69
2021/09/20 02:33:03;;;;;;;49.47;43.83;;;15.60;86.30;;;;;;4984326;28;20473;-70
2021/09/20 02:35:29;;;;;;;54.55;46.47;;;15.60;86.30;;;;;;4984875;28;20031;-69
2021/09/20 02:37:55;;;;;;;51.97;43.33;;;15.60;86.30;;;;;;4983948;28;20406;-72
2021/09/20 02:40:20;;;;;;;49.38;43.70;;;15.60;86.40;;;;;;4980656;28;20043;-69
2021/09/20 02:42:46;;;;;;;50.22;43.97;;;15.60;86.50;;;;;;4987075;28;20061;-69
2021/09/20 02:45:12;;;;;;;54.85;45.03;;;15.60;86.60;;;;;;4981926;28;20049;-71
2021/09/20 02:47:38;;;;;;;55.20;47.33;;;15.60;86.60;;;;;;4983232;28;20435;-69
2021/09/20 02:50:05;;;;;;;51.30;45.70;;;15.60;86.70;;;;;;4983304;28;20066;-69
2021/09/20 02:52:31;;;;;;;52.90;45.45;;;15.60;86.60;;;;;;4983070;28;20050;-69
2021/09/20 02:54:56;;;;;;;53.15;45.25;;;15.60;86.70;;;;;;4982580;28;20038;-71
2021/09/20 02:57:22;;;;;;;55.45;47.35;;;15.60;86.70;;;;;;4981547;28;20493;-69
2021/09/20 02:59:48;;;;;;;52.50;45.25;;;15.60;86.80;;;;;;4983669;28;20394;-69
2021/09/20 03:02:14;;;;;;;60.85;51.40;;;15.60;86.80;;;;;;4977798;28;20038;-71
2021/09/20 03:04:39;;;;;;;54.42;45.65;;;15.70;86.90;;;;;;4978923;28;20065;-69
2021/09/20 03:07:06;;;;;;;56.03;46.03;;;15.70;86.90;;;;;;4984305;28;20043;-74
2021/09/20 03:09:32;;;;;;;57.70;48.78;;;15.70;86.90;;;;;;4984606;28;20046;-69
2021/09/20 03:11:57;;;;;;;63.72;52.05;;;15.60;86.80;;;;;;4987805;28;20038;-69
2021/09/20 03:14:23;;;;;;;64.00;51.63;;;15.60;86.80;;;;;;4984371;28;20062;-71
2021/09/20 03:16:49;;;;;;;62.05;51.83;;;15.60;86.90;;;;;;4985776;28;20031;-69
2021/09/20 03:19:14;;;;;;;58.50;49.47;;;15.60;87.10;;;;;;4982656;28;20122;-69
2021/09/20 03:21:40;;;;;;;57.63;45.95;;;15.60;87.20;;;;;;4984378;28;20058;-71
2021/09/20 03:24:06;;;;;;;53.47;45.92;;;15.60;87.30;;;;;;4983249;28;20425;-70
2021/09/20 03:26:31;;;;;;;54.17;45.63;;;15.50;87.10;;;;;;4982271;28;20051;-70
2021/09/20 03:28:57;;;;;;;50.03;43.92;;;15.50;87.20;;;;;;4983106;28;20109;-71
2021/09/20 03:31:23;;;;;;;54.63;44.42;;;15.50;87.40;;;;;;4982624;28;20121;-70
2021/09/20 03:33:48;;;;;;;50.70;42.60;;;15.50;87.40;;;;;;4984019;28;20398;-70
2021/09/20 03:36:14;;;;;;;55.67;47.65;;;15.50;87.40;;;;;;4985748;28;20112;-69
2021/09/20 03:38:40;;;;;;;54.78;45.17;;;15.50;87.30;;;;;;4980911;28;20382;-71
2021/09/20 03:41:06;;;;;;;53.97;45.85;;;15.50;87.40;;;;;;4986418;28;20054;-69
2021/09/20 03:43:31;;;;;;;53.63;45.67;;;15.60;87.30;;;;;;4983009;28;20080;-69
2021/09/20 03:45:57;;;;;;;63.30;51.38;;;15.60;87.20;;;;;;4981680;28;20074;-72
2021/09/20 03:48:23;;;;;;;58.78;49.53;;;15.60;87.10;;;;;;4979539;28;20056;-69
2021/09/20 03:50:48;;;;;;;57.80;48.55;;;15.60;87.10;;;;;;4977076;28;20077;-69
2021/09/20 03:53:14;;;;;;;59.88;49.17;;;15.60;87.10;;;;;;4979413;28;20466;-70
2021/09/20 03:55:40;;;;;;;62.85;51.80;;;15.60;87.20;;;;;;4980710;28;20053;-69
2021/09/20 03:58:05;;;;;;;70.13;57.08;;;15.60;87.10;;;;;;4984818;28;20101;-69
2021/09/20 04:00:31;;;;;;;62.33;52.00;;;15.60;87.20;;;;;;4984988;28;20441;-70
2021/09/20 04:02:57;;;;;;;64.10;53.20;;;15.50;87.40;;;;;;4979626;28;20041;-70
2021/09/20 04:05:22;;;;;;;70.47;55.85;;;15.50;87.60;;;;;;4983867;28;20041;-69
2021/09/20 04:07:48;;;;;;;67.30;53.85;;;15.40;87.70;;;;;;4979505;28;20070;-69
2021/09/20 04:10:15;;;;;;;67.32;54.53;;;15.40;87.90;;;;;;4983107;28;20088;-69
2021/09/20 04:12:41;;;;;;;71.72;57.00;;;15.40;88.00;;;;;;4985929;28;20096;-69
2021/09/20 04:15:07;;;;;;;69.75;55.15;;;15.50;88.00;;;;;;4991281;28;20409;-70
2021/09/20 04:17:33;;;;;;;68.95;57.53;;;15.50;87.90;;;;;;4990686;28;20042;-69
2021/09/20 04:19:59;;;;;;;68.40;55.15;;;15.50;87.90;;;;;;4983114;28;20485;-71
2021/09/20 04:22:24;;;;;;;72.80;60.03;;;15.50;88.10;;;;;;4984070;28;20056;-69
2021/09/20 04:24:50;;;;;;;76.28;59.50;;;15.50;88.20;;;;;;4981101;28;20377;-70
2021/09/20 04:27:16;;;;;;;71.30;58.17;;;15.50;88.10;;;;;;4988555;28;20106;-70
2021/09/20 04:29:42;;;;;;;66.72;56.70;;;15.50;88.20;;;;;;4982843;28;20048;-69
2021/09/20 04:32:07;;;;;;;66.68;56.72;;;15.50;88.30;;;;;;4985790;28;20030;-70
2021/09/20 04:34:33;;;;;;;66.35;55.17;;;15.50;88.20;;;;;;4981827;28;20093;-69
2021/09/20 04:36:59;;;;;;;75.65;58.88;;;15.50;88.10;;;;;;4986154;28;20046;-70
2021/09/20 04:39:25;;;;;;;72.88;58.80;;;15.50;87.90;;;;;;4982749;28;20034;-69
2021/09/20 04:41:50;;;;;;;77.80;61.42;;;15.40;88.10;;;;;;4983541;28;20100;-69
2021/09/20 04:44:16;;;;;;;84.22;64.90;;;15.40;88.20;;;;;;4987525;28;20030;-69
2021/09/20 04:46:42;;;;;;;86.13;66.00;;;15.40;88.40;;;;;;4981408;28;20570;-69
2021/09/20 04:49:08;;;;;;;83.60;63.88;;;15.40;88.70;;;;;;4983492;28;20513;-71
2021/09/20 04:51:33;;;;;;;86.00;66.72;;;15.30;88.80;;;;;;4988746;28;20165;-69
2021/09/20 04:53:59;;;;;;;80.95;63.40;;;15.30;88.90;;;;;;4988059;28;20089;-70
2021/09/20 04:56:25;;;;;;;83.07;62.88;;;15.30;89.30;;;;;;4986813;28;20418;-70
2021/09/20 04:58:51;;;;;;;83.35;63.80;;;15.20;89.30;;;;;;4986989;28;20033;-69
2021/09/20 05:01:17;;;;;;;79.47;62.10;;;15.30;89.40;;;;;;4988955;28;20440;-69
2021/09/20 05:03:42;;;;;;;73.72;58.80;;;15.30;89.30;;;;;;4989111;28;20105;-70
2021/09/20 05:06:08;;;;;;;67.32;54.00;;;15.30;89.10;;;;;;4986237;28;20076;-70
2021/09/20 05:08:34;;;;;;;60.83;51.28;;;15.10;89.00;;;;;;4980783;28;20039;-72
2021/09/20 05:11:00;;;;;;;62.88;51.20;;;15.10;89.20;;;;;;4986826;28;20034;-70
2021/09/20 05:13:26;;;;;;;61.17;49.60;;;15.10;89.40;;;;;;4980113;28;20026;-69
2021/09/20 05:15:51;;;;;;;59.33;47.88;;;15.10;89.40;;;;;;4981662;28;20027;-70
2021/09/20 05:18:17;;;;;;;57.22;47.20;;;15.10;89.50;;;;;;4985528;28;20026;-71
2021/09/20 05:20:43;;;;;;;60.90;47.60;;;15.10;89.60;;;;;;4987633;28;20108;-70
2021/09/20 05:23:08;;;;;;;56.42;45.80;;;15.20;89.60;;;;;;4983925;28;20065;-70
2021/09/20 05:25:34;;;;;;;52.78;43.28;;;15.20;89.40;;;;;;4984326;28;20097;-74
2021/09/20 05:28:00;;;;;;;47.35;41.40;;;15.20;88.90;;;;;;4984874;28;20030;-70
2021/09/20 05:30:26;;;;;;;52.58;41.58;;;15.20;88.80;;;;;;4982624;28;20043;-68
2021/09/20 05:32:52;;;;;;;44.95;39.60;;;15.20;88.80;;;;;;4984777;28;20060;-68
2021/09/20 05:35:17;;;;;;;48.97;40.72;;;15.20;88.70;;;;;;4980549;28;20058;-69
2021/09/20 05:37:48;;;;;;;49.88;41.95;;;15.20;88.80;;;;;;4992694;28;20118;-67
2021/09/20 05:40:15;;;;;;;47.17;40.70;;;15.20;88.70;;;;;;5000578;28;20116;-68
2021/09/20 05:42:42;;;;;;;46.75;40.05;;;15.20;88.80;;;;;;4998774;28;20100;-68
2021/09/20 05:45:08;;;;;;;45.05;38.72;;;15.20;88.70;;;;;;5005417;28;20041;-68
2021/09/20 05:47:34;;;;;;;46.90;41.63;;;15.20;88.80;;;;;;4998875;28;20113;-68
2021/09/20 05:50:00;;;;;;;48.85;41.35;;;15.20;88.80;;;;;;4999579;28;20137;-68
2021/09/20 05:52:26;;;;;;;50.15;41.55;;;15.20;88.80;;;;;;5002452;28;20521;-68
2021/09/20 05:54:51;;;;;;;51.58;40.03;;;15.10;89.10;;;;;;5001566;28;20118;-68
2021/09/20 05:57:17;;;;;;;49.80;42.20;;;15.10;89.20;;;;;;5005120;28;20053;-68
2021/09/20 05:59:43;;;;;;;47.75;40.05;;;15.00;89.30;;;;;;5000067;28;20533;-68
2021/09/20 06:02:09;;;;;;;49.78;40.03;;;15.10;89.50;;;;;;5007413;28;20022;-71
2021/09/20 06:04:35;;;;;;;47.47;39.25;;;14.90;89.20;;;;;;5008387;28;20091;-69
2021/09/20 06:07:00;;;;;;;45.55;36.33;;;14.80;89.50;;;;;;5003037;28;20031;-70
2021/09/20 06:09:26;;;;;;;37.80;32.05;;;14.80;89.60;;;;;;5004170;28;20049;-67
2021/09/20 06:11:52;;;;;;;40.97;33.90;;;14.80;89.70;;;;;;4996559;28;20470;-67
2021/09/20 06:14:17;;;;;;;40.17;31.65;;;14.70;89.40;;;;;;5001707;28;20053;-71
2021/09/20 06:16:43;;;;;;;36.58;29.92;;;14.70;89.70;;;;;;5004942;28;20113;-68
2021/09/20 06:19:09;;;;;;;34.78;26.42;;;14.70;89.70;;;;;;4999213;28;20142;-71
2021/09/20 06:21:34;;;;;;;33.97;24.63;;;14.70;89.20;;;;;;5002816;28;20049;-67
2021/09/20 06:24:00;;;;;;;28.60;22.48;;;14.70;88.70;;;;;;5007466;28;20072;-68
2021/09/20 06:26:26;;;;;;;31.55;21.83;;;14.70;88.40;;;;;;5001857;28;20046;-70
2021/09/20 06:28:52;;;;;;;26.35;20.50;;;14.60;88.10;;;;;;5003565;28;20040;-69
2021/09/20 06:31:17;;;;;;;25.75;20.30;;;14.70;87.90;;;;;;5002743;28;20038;-67
2021/09/20 06:33:43;;;;;;;27.75;19.52;;;14.70;87.60;;;;;;5003882;28;20026;-69
2021/09/20 06:36:09;;;;;;;23.92;19.35;;;14.70;87.10;;;;;;5000623;28;20092;-69
2021/09/20 06:38:35;;;;;;;25.27;19.00;;;14.60;87.20;;;;;;5003130;28;20041;-68
2021/09/20 06:41:00;;;;;;;23.20;18.63;;;14.70;87.10;;;;;;5002383;28;20057;-68
2021/09/20 06:43:26;;;;;;;22.02;18.25;;;14.70;87.00;;;;;;5002944;28;20498;-68
2021/09/20 06:45:53;;;;;;;23.38;18.60;;;14.70;86.80;;;;;;5006866;28;20474;-68
2021/09/20 06:48:19;;;;;;;23.27;17.65;;;14.60;86.40;;;;;;4999400;28;20042;-68
2021/09/20 06:50:45;;;;;;;23.70;17.05;;;14.70;86.60;;;;;;5003882;28;20057;-68
2021/09/20 06:53:11;;;;;;;26.65;18.27;;;14.60;86.20;;;;;;5003337;28;20039;-68
2021/09/20 06:55:36;;;;;;;20.55;16.42;;;14.60;86.10;;;;;;5002612;28;20089;-69
2021/09/20 06:58:03;;;;;;;22.20;16.83;;;14.70;86.10;;;;;;5002814;28;20042;-68
2021/09/20 07:00:30;;;;;;;23.30;16.92;;;14.80;85.90;;;;;;4998687;28;20470;-68
2021/09/20 07:02:56;;;;;;;23.52;17.48;;;14.70;85.30;;;;;;4983306;28;20035;-68
2021/09/20 07:05:22;;;;;;;22.73;17.95;;;14.70;85.10;;;;;;4983011;28;20033;-68
2021/09/20 07:07:48;;;;;;;23.65;17.40;;;14.70;85.70;;;;;;4982213;28;20466;-68
2021/09/20 07:10:16;;;;;;;23.42;17.35;;;14.70;85.10;;;;;;4978970;28;20050;-68
2021/09/20 07:12:42;;;;;;;21.33;17.52;;;14.60;84.90;;;;;;4984884;28;20061;-68
2021/09/20 07:15:09;;;;;;;23.42;17.85;;;14.60;84.90;;;;;;4984683;28;20026;-68
2021/09/20 07:17:35;;;;;;;23.73;18.10;;;14.70;85.00;;;;;;4975424;28;20034;-68
2021/09/20 07:20:00;;;;;;;24.42;18.33;;;14.80;84.40;;;;;;4976199;28;20367;-69
2021/09/20 07:22:26;;;;;;;23.17;18.27;;;14.80;84.20;;;;;;4977816;28;20489;-68
2021/09/20 07:24:53;;;;;;;22.77;18.52;;;14.80;84.20;;;;;;4986004;28;20113;-69
2021/09/20 07:27:19;;;;;;;23.35;17.38;;;14.90;84.10;;;;;;4978636;28;20047;-68
2021/09/20 07:29:45;;;;;;;22.02;16.83;;;15.10;84.00;;;;;;4978938;28;20058;-72
2021/09/20 07:32:11;;;;;;;24.73;17.65;;;15.20;83.50;;;;;;4981714;28;20178;-68
2021/09/20 07:34:37;;;;;;;23.65;18.15;;;15.20;83.20;;;;;;4978815;28;20038;-72
2021/09/20 07:37:03;;;;;;;23.60;17.20;;;15.20;83.10;;;;;;4985251;28;20037;-68
2021/09/20 07:39:30;;;;;;;24.00;18.98;;;15.40;82.90;;;;;;4982159;28;20077;-68
2021/09/20 07:41:56;;;;;;;24.27;17.90;;;15.30;82.30;;;;;;4983236;28;20122;-68
2021/09/20 07:44:22;;;;;;;25.20;19.42;;;15.30;83.00;;;;;;4981559;28;20046;-69
2021/09/20 07:46:48;;;;;;;22.95;18.35;;;15.30;82.70;;;;;;4982965;28;20031;-68
2021/09/20 07:49:13;;;;;;;24.95;18.77;;;15.40;82.90;;;;;;4984211;28;20051;-69
2021/09/20 07:51:39;;;;;;;25.02;19.42;;;15.60;82.30;;;;;;4984801;28;20117;-68
2021/09/20 07:54:04;;;;;;;25.60;18.90;;;15.40;81.70;;;;;;4983418;28;20030;-70
2021/09/20 07:56:31;;;;;;;24.30;18.60;;;15.40;81.80;;;;;;4985371;28;20596;-69
2021/09/20 07:59:00;;;;;;;21.90;17.90;;;15.60;82.00;;;;;;4982724;28;20124;-69
2021/09/20 08:01:27;;;;;;;23.45;18.25;;;15.60;81.20;;;;;;4986573;28;20086;-69
2021/09/20 08:03:52;;;;;;;21.77;17.30;;;15.60;80.90;;;;;;4983296;28;20042;-69
2021/09/20 08:06:18;;;;;;;21.90;16.88;;;15.80;80.80;;;;;;4984622;28;20045;-68
2021/09/20 08:08:44;;;;;;;20.60;16.95;;;15.90;80.40;;;;;;4986299;28;20034;-69
2021/09/20 08:11:11;;;;;;;21.00;17.60;;;15.80;80.30;;;;;;4984699;28;20038;-68
2021/09/20 08:13:37;;;;;;;22.55;16.98;;;15.80;80.90;;;;;;4984784;28;20041;-68
2021/09/20 08:16:02;;;;;;;24.45;18.00;;;15.90;80.80;;;;;;4982459;28;20027;-68
2021/09/20 08:18:28;;;;;;;22.75;18.05;;;16.10;80.50;;;;;;4986364;28;20039;-69
2021/09/20 08:20:54;;;;;;;22.27;17.48;;;16.00;80.60;;;;;;4980544;28;20030;-68
2021/09/20 08:23:20;;;;;;;22.15;17.77;;;16.10;80.90;;;;;;4985412;28;20045;-69
2021/09/20 08:25:46;;;;;;;22.40;17.85;;;16.10;80.50;;;;;;4985648;28;20038;-69
2021/09/20 08:28:12;;;;;;;22.15;18.50;;;16.30;79.90;;;;;;4986910;28;20446;-68
2021/09/20 08:30:39;;;;;;;23.88;18.33;;;16.40;79.60;;;;;;4980177;28;20050;-69
2021/09/20 08:33:05;;;;;;;23.63;17.75;;;16.50;80.40;;;;;;4987522;28;20042;-73
2021/09/20 08:35:31;;;;;;;22.25;17.83;;;16.70;79.30;;;;;;4984728;28;20039;-69
2021/09/20 08:37:57;;;;;;;22.20;18.23;;;16.80;79.00;;;;;;4984503;28;20054;-69
2021/09/20 08:40:23;;;;;;;21.92;18.58;;;16.90;78.30;;;;;;4987631;28;20189;-68
2021/09/20 08:42:50;;;;;;;23.17;18.38;;;17.00;78.60;;;;;;4979042;28;20039;-68
2021/09/20 08:45:18;;;;;;;23.08;17.48;;;17.00;77.40;;;;;;4985676;28;20038;-68
2021/09/20 08:47:47;;;;;;;23.15;18.05;;;17.00;77.20;;;;;;4984599;28;20035;-68
2021/09/20 08:50:15;;;;;;;26.27;18.67;;;17.00;78.30;;;;;;4979707;28;20121;-70
2021/09/20 08:52:41;;;;;;;21.52;17.50;;;17.20;77.50;;;;;;4984625;28;20038;-69
2021/09/20 08:55:08;;;;;;;22.13;17.10;;;17.50;76.80;;;;;;4977262;28;20031;-69
2021/09/20 08:57:34;;;;;;;20.42;16.70;;;17.60;76.00;;;;;;4985881;28;20113;-68
2021/09/20 09:00:01;;;;;;;23.35;17.67;;;17.70;75.10;;;;;;4990102;28;20026;-69
2021/09/20 09:02:30;;;;;;;22.58;17.02;;;17.50;75.40;;;;;;4983440;28;20432;-68
2021/09/20 09:05:18;;;;;;;19.02;16.30;;;17.50;76.30;;;;;;4983476;28;20030;-69
2021/09/20 09:07:47;;;;;;;21.52;17.05;;;17.40;75.90;;;;;;4985637;28;20038;-69
2021/09/20 09:10:13;;;;;;;22.40;16.50;;;17.60;75.50;;;;;;4985313;28;20042;-69
2021/09/20 09:12:39;;;;;;;19.65;16.23;;;17.30;74.50;;;;;;4983698;28;20389;-68
2021/09/20 09:15:09;;;;;;;19.77;15.65;;;17.30;75.20;;;;;;4985154;28;20042;-68
2021/09/20 09:17:44;;;;;;;21.27;16.27;;;17.60;74.20;;;;;;4985923;28;20038;-69
2021/09/20 09:20:16;;;;;;;19.38;16.08;;;17.50;73.50;;;;;;4986518;28;20042;-69
2021/09/20 09:22:58;;;;;;;17.88;15.35;;;17.60;73.10;;;;;;4976468;28;20038;-68
2021/09/20 09:25:27;;;;;;;20.85;15.68;;;17.70;72.40;;;;;;4984467;28;20046;-68
2021/09/20 09:27:58;;;;;;;19.17;15.65;;;17.80;71.80;;;;;;4977582;28;20114;-69
2021/09/20 09:30:27;;;;;;;20.38;16.83;;;18.00;72.30;;;;;;4981906;28;20052;-70
2021/09/20 09:33:10;;;;;;;20.20;15.73;;;18.00;71.60;;;;;;4984359;28;20470;-72
2021/09/20 09:35:37;;;;;;;21.80;16.58;;;17.60;71.90;;;;;;4984981;28;20482;-70
2021/09/20 09:38:06;;;;;;;20.48;16.23;;;17.50;71.90;;;;;;4982614;28;20546;-70
2021/09/20 09:40:45;;;;;;;19.92;15.30;;;17.60;72.50;;;;;;4986260;28;20072;-70
2021/09/20 09:43:11;;;;;;;17.73;15.07;;;17.60;71.80;;;;;;4982966;28;20378;-69
2021/09/20 09:45:37;;;;;;;17.58;14.65;;;17.60;71.40;;;;;;4985497;28;20031;-70
2021/09/20 09:48:09;;;;;;;17.65;14.32;;;17.60;70.90;;;;;;4984463;28;20031;-71
2021/09/20 09:50:48;;;;;;;18.50;15.07;;;17.60;71.70;;;;;;4981922;28;20053;-71
2021/09/20 09:53:32;;;;;;;20.55;15.35;;;17.80;70.30;;;;;;4981855;28;20421;-73
2021/09/20 09:56:02;;;;;;;17.93;15.30;;;17.30;72.40;;;;;;4983607;28;20030;-70
2021/09/20 09:58:28;;;;;;;20.60;14.52;;;17.40;72.10;;;;;;4982721;28;20034;-73
2021/09/20 10:01:16;;;;;;;20.55;14.27;;;17.60;71.20;;;;;;4982926;28;20057;-70
2021/09/20 10:04:05;;;;;;;20.70;15.40;;;17.90;70.90;;;;;;4983256;28;20038;-69
2021/09/20 10:06:42;;;;;;;18.77;14.57;;;18.20;70.40;;;;;;4984052;28;20108;-71
2021/09/20 10:09:09;;;;;;;17.88;14.00;;;18.30;69.80;;;;;;4984309;28;20393;-70
2021/09/20 10:11:35;;;;;;;17.92;14.00;;;18.30;68.70;;;;;;4984299;28;20027;-71
2021/09/20 10:14:02;;;;;;;19.10;14.30;;;18.60;67.00;;;;;;4985892;28;20066;-73
2021/09/20 10:16:31;;;;;;;17.70;13.13;;;18.80;66.20;;;;;;4987928;28;20040;-70
2021/09/20 10:18:59;;;;;;;16.70;12.98;;;18.70;65.60;;;;;;4987093;28;20150;-70
2021/09/20 10:21:25;;;;;;;16.52;12.57;;;18.90;66.50;;;;;;4983998;28;20466;-70
2021/09/20 10:23:53;;;;;;;17.63;12.65;;;18.80;65.80;;;;;;4979891;28;20114;-70
2021/09/20 10:26:19;;;;;;;15.50;12.52;;;18.90;65.20;;;;;;4982105;28;20557;-71
2021/09/20 10:28:48;;;;;;;17.13;11.48;;;18.90;66.00;;;;;;4985662;28;20039;-69
2021/09/20 10:31:15;;;;;;;16.60;11.70;;;18.60;66.10;;;;;;4979878;28;20065;-73
2021/09/20 10:33:41;;;;;;;14.68;10.55;;;18.90;64.60;;;;;;4980727;28;20508;-70
2021/09/20 10:36:07;;;;;;;16.42;11.63;;;19.00;64.10;;;;;;4978516;28;20039;-71
2021/09/20 10:38:33;;;;;;;16.40;12.15;;;18.70;63.80;;;;;;4984526;28;20038;-72
2021/09/20 10:41:06;;;;;;;14.30;11.40;;;18.80;64.70;;;;;;4986299;28;20049;-70
2021/09/20 10:43:32;;;;;;;16.35;10.82;;;19.00;63.20;;;;;;4981492;28;20046;-70
2021/09/20 10:45:57;;;;;;;15.88;11.95;;;19.20;62.80;;;;;;4984726;28;20092;-70
2021/09/20 10:48:45;;;;;;;15.35;11.85;;;19.20;62.90;;;;;;4984059;28;20149;-70
2021/09/20 10:51:18;;;;;;;15.85;12.15;;;19.10;62.90;;;;;;4983500;28;20045;-69
2021/09/20 10:53:44;;;;;;;15.68;11.93;;;19.40;62.90;;;;;;4986903;28;20037;-70
2021/09/20 10:56:13;;;;;;;15.18;11.13;;;19.50;63.00;;;;;;4993079;28;20042;-71
2021/09/20 10:59:08;;;;;;;15.82;11.48;;;19.60;61.60;;;;;;4995370;28;20338;-70
2021/09/20 11:01:35;;;;;;;15.63;12.50;;;19.50;61.70;;;;;;4984614;28;20043;-70
2021/09/20 11:04:04;;;;;;;16.92;11.63;;;19.60;61.60;;;;;;4995026;28;20034;-69
2021/09/20 11:06:37;;;;;;;16.70;12.77;;;19.40;63.60;;;;;;5002434;28;20046;-70
2021/09/20 11:09:05;;;;;;;17.33;12.93;;;19.40;63.50;;;;;;5004093;28;20386;-70
2021/09/20 11:11:47;;;;;;;19.15;12.40;;;19.40;62.60;;;;;;4996868;28;20382;-72
2021/09/20 11:14:18;;;;;;;14.25;11.57;;;19.30;63.50;;;;;;5002595;28;20053;-70
2021/09/20 11:16:56;;;;;;;16.25;11.77;;;19.40;63.00;;;;;;5013516;28;20394;-70
2021/09/20 11:19:27;;;;;;;16.23;12.35;;;19.50;62.70;;;;;;4998275;28;20121;-70
2021/09/20 11:22:06;;;;;;;16.48;12.30;;;19.70;63.20;;;;;;4999417;28;20125;-71
2021/09/20 11:24:42;;;;;;;15.85;11.43;;;20.10;62.20;;;;;;5004144;28;20049;-69
2021/09/20 11:27:24;;;;;;;15.60;11.90;;;20.40;61.50;;;;;;5005216;28;20103;-70
2021/09/20 11:30:00;;;;;;;14.40;10.98;;;20.60;59.60;;;;;;5006274;28;20050;-70
2021/09/20 11:32:26;;;;;;;15.98;11.35;;;20.50;60.80;;;;;;5005334;28;20037;-71
2021/09/20 11:34:54;;;;;;;17.52;12.18;;;20.70;60.20;;;;;;5008962;28;20037;-70
2021/09/20 11:37:30;;;;;;;16.05;12.07;;;20.50;60.00;;;;;;5010117;28;20042;-72
2021/09/20 11:39:59;;;;;;;17.00;12.30;;;20.40;60.80;;;;;;5014341;28;20129;-70
2021/09/20 11:42:36;;;;;;;16.20;12.27;;;20.50;59.80;;;;;;5008341;28;20118;-69
2021/09/20 11:45:06;;;;;;;16.67;12.20;;;20.30;61.10;;;;;;5007707;28;20944;-70
2021/09/20 11:47:38;;;;;;;16.65;12.95;;;20.50;61.00;;;;;;4984354;28;20046;-70
2021/09/20 11:50:06;;;;;;;21.35;13.95;;;20.60;60.00;;;;;;4981867;28;20057;-70
2021/09/20 11:52:36;;;;;;;18.83;13.43;;;20.80;59.60;;;;;;4982727;28;20118;-70
2021/09/20 11:55:04;;;;;;;17.25;13.05;;;20.70;59.40;;;;;;4986095;28;20116;-71
2021/09/20 11:57:33;;;;;;;17.63;12.15;;;20.60;60.10;;;;;;4983535;28;20063;-69
2021/09/20 12:00:01;;;;;;;21.20;13.93;;;20.60;58.80;;;;;;4982545;28;20552;-70
2021/09/20 12:02:45;;;;;;;19.23;13.85;;;20.40;59.90;;;;;;4982591;28;20046;-70
2021/09/20 12:05:17;;;;;;;16.70;12.52;;;20.00;62.10;;;;;;4981868;28;20034;-73
2021/09/20 12:07:57;;;;;;;17.27;11.98;;;20.10;61.50;;;;;;4980039;28;20030;-70
2021/09/20 12:10:34;;;;;;;17.00;11.77;;;20.40;60.30;;;;;;4987139;28;20042;-71
2021/09/20 12:13:04;;;;;;;18.17;12.77;;;20.40;59.00;;;;;;4984677;28;20031;-70
2021/09/20 12:15:33;;;;;;;14.60;11.05;;;20.30;58.30;;;;;;4984445;28;20038;-70
2021/09/20 12:18:02;;;;;;;14.95;11.13;;;20.10;60.10;;;;;;4982778;28;20501;-70
2021/09/20 12:20:39;;;;;;;14.93;11.05;;;20.40;58.60;;;;;;4980447;28;20087;-70
2021/09/20 12:23:29;;;;;;;13.15;9.10;;;20.10;58.30;;;;;;4986135;28;20038;-70
2021/09/20 12:26:08;;;;;;;12.23;7.90;;;19.80;57.30;;;;;;4984019;28;20046;-70
2021/09/20 12:28:57;;;;;;;12.00;8.40;;;19.80;58.00;;;;;;4988461;28;20544;-68
2021/09/20 12:31:39;;;;;;;13.00;8.27;;;19.70;58.00;;;;;;4984924;28;20073;-73